createdAt,value
2022-09-09T00:01:53.314Z,14.50
2022-09-09T00:04:29.397Z,14.40
2022-09-09T00:07:15.625Z,14.40
2022-09-09T00:09:50.090Z,14.30
2022-09-09T00:12:23.029Z,14.30
2022-09-09T00:14:56.353Z,14.40
2022-09-09T00:17:36.765Z,14.60
2022-09-09T00:20:11.620Z,14.70
2022-09-09T00:22:44.924Z,14.80
2022-09-09T00:25:17.814Z,14.80
2022-09-09T00:27:48.681Z,14.90
2022-09-09T00:30:23.137Z,14.90
2022-09-09T00:32:52.420Z,14.80
2022-09-09T00:35:24.773Z,14.80
2022-09-09T00:37:56.416Z,14.70
2022-09-09T00:40:30.837Z,14.70
2022-09-09T00:43:20.538Z,14.80
2022-09-09T00:46:15.448Z,14.70
2022-09-09T00:48:53.156Z,14.80
2022-09-09T00:51:28.742Z,14.70
2022-09-09T00:54:26.320Z,14.60
2022-09-09T00:57:04.372Z,14.60
2022-09-09T00:59:45.112Z,14.60
2022-09-09T01:02:24.257Z,14.50
2022-09-09T01:04:52.103Z,14.50
2022-09-09T01:07:20.943Z,14.40
2022-09-09T01:09:56.657Z,14.30
2022-09-09T01:12:44.639Z,14.20
2022-09-09T01:15:17.758Z,14.00
2022-09-09T01:17:55.439Z,14.00
2022-09-09T01:20:26.715Z,13.70
2022-09-09T01:23:21.136Z,13.60
2022-09-09T01:26:15.400Z,13.50
2022-09-09T01:28:46.119Z,13.40
2022-09-09T01:31:18.979Z,13.40
2022-09-09T01:33:46.968Z,13.40
2022-09-09T01:36:21.804Z,13.40
2022-09-09T01:38:49.765Z,13.40
2022-09-09T01:41:19.056Z,13.30
2022-09-09T01:43:47.044Z,13.30
2022-09-09T01:46:15.476Z,13.30
2022-09-09T01:48:44.331Z,13.30
2022-09-09T01:51:12.453Z,13.30
2022-09-09T01:53:42.317Z,13.30
2022-09-09T01:56:23.555Z,13.10
2022-09-09T01:59:05.229Z,12.90
2022-09-09T02:01:45.718Z,12.80
2022-09-09T02:04:29.398Z,12.90
2022-09-09T02:06:58.916Z,13.00
2022-09-09T02:09:28.275Z,13.00
2022-09-09T02:12:03.435Z,13.00
2022-09-09T02:14:34.557Z,13.00
2022-09-09T02:17:09.459Z,13.10
2022-09-09T02:19:41.125Z,13.20
2022-09-09T02:22:09.077Z,13.00
2022-09-09T02:24:39.676Z,13.00
2022-09-09T02:27:10.889Z,12.80
2022-09-09T02:29:42.205Z,12.90
2022-09-09T02:32:14.047Z,12.80
2022-09-09T02:34:45.050Z,12.90
2022-09-09T02:37:15.028Z,12.80
2022-09-09T02:39:42.915Z,12.80
2022-09-09T02:42:12.268Z,12.80
2022-09-09T02:44:40.286Z,12.80
2022-09-09T02:47:17.479Z,12.90
2022-09-09T02:49:52.852Z,13.00
2022-09-09T02:52:27.917Z,13.10
2022-09-09T02:55:01.806Z,13.30
2022-09-09T02:57:33.813Z,13.40
2022-09-09T03:00:02.637Z,13.40
2022-09-09T03:02:31.266Z,13.40
2022-09-09T03:04:59.457Z,13.50
2022-09-09T03:07:28.365Z,13.40
2022-09-09T03:09:56.234Z,13.20
2022-09-09T03:12:24.053Z,13.10
2022-09-09T03:14:53.253Z,13.00
2022-09-09T03:17:21.092Z,12.90
2022-09-09T03:19:50.476Z,12.80
2022-09-09T03:22:18.655Z,12.70
2022-09-09T03:24:47.647Z,12.70
2022-09-09T03:27:16.276Z,12.60
2022-09-09T03:29:44.109Z,12.50
2022-09-09T03:32:13.795Z,12.50
2022-09-09T03:34:41.614Z,12.40
2022-09-09T03:37:09.485Z,12.30
2022-09-09T03:39:37.285Z,12.20
2022-09-09T03:42:06.626Z,12.20
2022-09-09T03:44:34.388Z,12.10
2022-09-09T03:47:02.290Z,12.00
2022-09-09T03:49:31.504Z,12.00
2022-09-09T03:51:59.960Z,11.90
2022-09-09T03:54:28.257Z,11.90
2022-09-09T03:56:56.063Z,11.80
2022-09-09T03:59:23.999Z,11.70
2022-09-09T04:01:52.080Z,11.70
2022-09-09T04:04:20.883Z,11.70
2022-09-09T04:06:51.917Z,11.70
2022-09-09T04:09:19.763Z,11.70
2022-09-09T04:11:47.597Z,11.70
2022-09-09T04:14:15.401Z,11.70
2022-09-09T04:16:45.534Z,11.70
2022-09-09T04:19:14.578Z,11.80
2022-09-09T04:21:43.305Z,11.80
2022-09-09T04:24:12.479Z,11.80
2022-09-09T04:26:40.484Z,11.90
2022-09-09T04:29:08.631Z,11.80
2022-09-09T04:31:36.533Z,11.90
2022-09-09T04:34:06.217Z,11.90
2022-09-09T04:36:34.207Z,11.90
2022-09-09T04:39:02.517Z,11.90
2022-09-09T04:41:32.319Z,11.90
2022-09-09T04:44:00.713Z,11.90
2022-09-09T04:46:28.509Z,11.80
2022-09-09T04:48:56.370Z,11.80
2022-09-09T04:51:24.546Z,11.80
2022-09-09T04:53:54.818Z,11.80
2022-09-09T04:56:22.814Z,11.80
2022-09-09T04:58:52.017Z,11.80
2022-09-09T05:01:22.522Z,11.90
2022-09-09T05:03:50.746Z,12.00
2022-09-09T05:06:20.991Z,12.10
2022-09-09T05:08:49.182Z,12.20
2022-09-09T05:11:18.719Z,12.30
2022-09-09T05:13:47.305Z,12.20
2022-09-09T05:16:16.833Z,12.10
2022-09-09T05:18:45.311Z,12.10
2022-09-09T05:21:13.982Z,12.10
2022-09-09T05:23:41.863Z,12.20
2022-09-09T05:26:17.216Z,12.30
2022-09-09T05:28:46.176Z,12.30
2022-09-09T05:31:17.179Z,12.40
2022-09-09T05:33:46.668Z,12.40
2022-09-09T05:36:16.466Z,12.50
2022-09-09T05:38:45.180Z,12.70
2022-09-09T05:41:13.450Z,12.70
2022-09-09T05:43:41.514Z,12.90
2022-09-09T05:46:11.266Z,13.00
2022-09-09T05:48:41.825Z,13.10
2022-09-09T05:51:13.530Z,13.20
2022-09-09T05:53:41.487Z,13.30
2022-09-09T05:56:11.765Z,13.40
2022-09-09T05:58:40.173Z,13.60
2022-09-09T06:01:09.594Z,13.80
2022-09-09T06:03:38.034Z,13.90
2022-09-09T06:06:09.725Z,14.00
2022-09-09T06:08:39.626Z,13.90
2022-09-09T06:11:10.385Z,14.00
2022-09-09T06:13:39.811Z,13.80
2022-09-09T06:16:10.044Z,13.70
2022-09-09T06:18:37.977Z,13.60
2022-09-09T06:21:09.222Z,13.60
2022-09-09T06:23:37.041Z,13.80
2022-09-09T06:26:07.641Z,14.00
2022-09-09T06:28:35.979Z,14.10
2022-09-09T06:31:06.834Z,14.20
2022-09-09T06:33:36.717Z,14.30
2022-09-09T06:36:07.845Z,14.40
2022-09-09T06:38:35.727Z,14.50
2022-09-09T06:41:04.028Z,14.30
2022-09-09T06:43:31.914Z,14.30
2022-09-09T06:46:01.483Z,14.20
2022-09-09T06:48:30.007Z,14.20
2022-09-09T06:51:07.306Z,14.30
2022-09-09T06:53:36.706Z,14.30
2022-09-09T06:56:18.893Z,14.30
2022-09-09T06:58:47.368Z,14.30
2022-09-09T07:01:16.737Z,14.40
2022-09-09T07:03:47.342Z,14.60
2022-09-09T07:06:18.949Z,14.80
2022-09-09T07:08:56.197Z,14.90
2022-09-09T07:11:27.792Z,14.80
2022-09-09T07:13:55.876Z,14.90
2022-09-09T07:16:25.779Z,15.30
2022-09-09T07:18:58.575Z,15.70
2022-09-09T07:21:29.744Z,16.00
2022-09-09T07:23:59.816Z,16.40
2022-09-09T07:26:29.794Z,16.30
2022-09-09T07:28:58.222Z,16.00
2022-09-09T07:31:27.929Z,15.80
2022-09-09T07:33:56.040Z,15.80
2022-09-09T07:36:27.925Z,15.90
2022-09-09T07:39:01.223Z,15.90
2022-09-09T07:41:32.230Z,15.80
2022-09-09T07:44:00.086Z,15.90
2022-09-09T07:46:29.008Z,15.80
2022-09-09T07:48:59.088Z,15.80
2022-09-09T07:51:28.799Z,15.90
2022-09-09T07:54:01.072Z,15.90
2022-09-09T07:56:29.836Z,15.70
2022-09-09T07:58:59.640Z,15.50
2022-09-09T08:01:29.892Z,15.50
2022-09-09T08:04:02.054Z,15.40
2022-09-09T08:06:32.006Z,15.40
2022-09-09T08:09:01.877Z,15.40
2022-09-09T08:11:32.449Z,15.50
2022-09-09T08:14:03.791Z,15.60
2022-09-09T08:16:33.386Z,15.80
2022-09-09T08:19:01.510Z,16.00
2022-09-09T08:21:31.547Z,16.20
2022-09-09T08:24:03.252Z,16.30
2022-09-09T08:26:33.060Z,16.50
2022-09-09T08:29:02.571Z,16.70
2022-09-09T08:31:32.590Z,16.90
2022-09-09T08:34:01.383Z,17.00
2022-09-09T08:36:31.056Z,17.40
2022-09-09T08:38:59.864Z,17.40
2022-09-09T08:41:59.331Z,17.00
2022-09-09T08:44:39.865Z,17.30
2022-09-09T08:47:17.397Z,17.70
2022-09-09T08:50:03.579Z,17.70
2022-09-09T08:52:33.350Z,17.40
2022-09-09T08:55:17.423Z,17.30
2022-09-09T08:57:47.298Z,17.70
2022-09-09T09:00:15.773Z,18.30
2022-09-09T09:02:51.216Z,18.20
2022-09-09T09:05:27.068Z,18.40
2022-09-09T09:08:07.336Z,18.60
2022-09-09T09:10:48.828Z,18.90
2022-09-09T09:13:22.717Z,18.60
2022-09-09T09:15:56.238Z,18.30
2022-09-09T09:18:24.067Z,18.30
2022-09-09T09:20:59.522Z,18.80
2022-09-09T09:23:31.884Z,19.20
2022-09-09T09:26:02.454Z,19.40
2022-09-09T09:28:34.185Z,19.30
2022-09-09T09:31:07.693Z,19.50
2022-09-09T09:33:41.460Z,19.80
2022-09-09T09:36:10.679Z,19.90
2022-09-09T09:41:34.525Z,19.60
2022-09-09T09:44:05.500Z,19.80
2022-09-09T09:46:34.245Z,19.00
2022-09-09T09:49:03.815Z,18.20
2022-09-09T09:51:34.108Z,18.20
2022-09-09T09:54:16.975Z,18.30
2022-09-09T09:56:46.245Z,18.50
2022-09-09T09:59:39.517Z,18.60
2022-09-09T10:02:16.411Z,19.10
2022-09-09T10:04:46.182Z,19.70
2022-09-09T10:07:14.795Z,19.20
2022-09-09T10:09:42.978Z,18.60
2022-09-09T10:12:20.297Z,18.40
2022-09-09T10:14:59.857Z,18.50
2022-09-09T10:17:35.677Z,18.90
2022-09-09T10:20:21.317Z,19.20
2022-09-09T10:22:53.416Z,19.40
2022-09-09T10:25:33.560Z,19.30
2022-09-09T10:28:27.498Z,19.40
2022-09-09T10:31:09.775Z,19.50
2022-09-09T10:33:48.908Z,19.50
2022-09-09T10:36:21.380Z,20.20
2022-09-09T10:38:51.902Z,19.70
2022-09-09T10:41:24.158Z,19.40
2022-09-09T10:44:19.281Z,19.60
2022-09-09T10:47:16.993Z,19.70
2022-09-09T10:49:59.758Z,20.10
2022-09-09T10:52:34.802Z,20.10
2022-09-09T10:55:10.483Z,20.00
2022-09-09T10:57:42.728Z,19.40
2022-09-09T11:00:20.405Z,19.90
2022-09-09T11:02:53.977Z,20.50
2022-09-09T11:05:26.852Z,20.90
2022-09-09T11:08:00.244Z,21.00
2022-09-09T11:10:36.681Z,21.00
2022-09-09T11:13:07.246Z,20.90
2022-09-09T11:15:42.930Z,20.60
2022-09-09T11:18:18.276Z,20.50
2022-09-09T11:20:48.424Z,20.30
2022-09-09T11:23:22.933Z,20.50
2022-09-09T11:25:56.337Z,21.10
2022-09-09T11:28:41.011Z,21.30
2022-09-09T11:31:24.738Z,21.70
2022-09-09T11:34:15.153Z,21.40
2022-09-09T11:37:12.056Z,22.00
2022-09-09T11:40:11.175Z,21.70
2022-09-09T11:42:39.148Z,21.60
2022-09-09T11:45:24.669Z,21.70
2022-09-09T11:47:56.550Z,21.50
2022-09-09T11:50:35.073Z,21.60
2022-09-09T11:53:21.079Z,21.80
2022-09-09T11:55:49.238Z,21.10
2022-09-09T11:58:20.053Z,20.50
2022-09-09T12:00:49.492Z,19.70
2022-09-09T12:03:36.849Z,19.90
2022-09-09T12:06:16.367Z,19.80
2022-09-09T12:08:47.355Z,19.40
2022-09-09T12:11:26.530Z,19.30
2022-09-09T12:13:55.827Z,19.00
2022-09-09T12:16:34.185Z,19.30
2022-09-09T12:19:07.641Z,19.50
2022-09-09T12:21:45.121Z,19.00
2022-09-09T12:24:15.317Z,18.60
2022-09-09T12:26:48.721Z,18.70
2022-09-09T12:29:27.044Z,19.00
2022-09-09T12:32:02.441Z,18.80
2022-09-09T12:34:40.090Z,18.60
2022-09-09T12:37:31.073Z,18.60
2022-09-09T12:40:00.267Z,19.10
2022-09-09T12:42:28.890Z,19.10
2022-09-09T12:44:58.802Z,19.20
2022-09-09T12:47:32.877Z,19.60
2022-09-09T12:50:01.175Z,19.90
2022-09-09T12:52:35.093Z,20.10
2022-09-09T12:55:05.934Z,20.10
2022-09-09T12:57:37.627Z,20.10
2022-09-09T13:00:11.009Z,20.10
2022-09-09T13:02:48.802Z,20.20
2022-09-09T13:05:19.862Z,20.40
2022-09-09T13:07:49.254Z,20.00
2022-09-09T13:10:36.325Z,19.60
2022-09-09T13:13:16.965Z,19.40
2022-09-09T13:15:52.000Z,19.10
2022-09-09T13:18:23.604Z,19.10
2022-09-09T13:20:52.801Z,19.40
2022-09-09T13:23:23.251Z,19.80
2022-09-09T13:25:59.277Z,20.10
2022-09-09T13:28:33.674Z,20.70
2022-09-09T13:31:04.216Z,20.60
2022-09-09T13:33:34.303Z,20.80
2022-09-09T13:36:05.299Z,20.50
2022-09-09T13:38:38.351Z,20.60
2022-09-09T13:41:08.142Z,20.60
2022-09-09T13:43:40.017Z,20.50
2022-09-09T13:46:26.978Z,20.20
2022-09-09T13:48:58.023Z,19.90
2022-09-09T13:51:35.902Z,19.50
2022-09-09T13:54:06.398Z,19.60
2022-09-09T13:56:35.342Z,20.10
2022-09-09T13:59:03.501Z,20.50
2022-09-09T14:01:32.405Z,20.90
2022-09-09T14:04:00.657Z,20.30
2022-09-09T14:06:30.419Z,20.10
2022-09-09T14:08:58.364Z,19.80
2022-09-09T14:11:27.474Z,20.10
2022-09-09T14:13:55.360Z,20.00
2022-09-09T14:16:23.335Z,19.80
2022-09-09T14:18:51.675Z,19.80
2022-09-09T14:21:19.480Z,19.80
2022-09-09T14:23:48.187Z,19.50
2022-09-09T14:26:16.087Z,19.30
2022-09-09T14:28:54.703Z,19.20
2022-09-09T14:31:23.626Z,19.00
2022-09-09T14:33:53.580Z,19.10
2022-09-09T14:36:21.613Z,19.10
2022-09-09T14:38:49.645Z,19.10
2022-09-09T14:41:19.467Z,19.10
2022-09-09T14:43:49.255Z,19.00
2022-09-09T14:46:26.199Z,19.40
2022-09-09T14:51:24.709Z,20.10
2022-09-09T14:53:55.023Z,20.10
2022-09-09T14:56:25.595Z,20.20
2022-09-09T14:58:56.229Z,19.70
2022-09-09T15:01:25.211Z,19.40
2022-09-09T15:03:56.467Z,19.10
2022-09-09T15:06:25.330Z,18.90
2022-09-09T15:08:58.730Z,18.70
2022-09-09T15:11:28.771Z,18.30
2022-09-09T15:13:59.042Z,18.20
2022-09-09T15:16:29.560Z,18.00
2022-09-09T15:19:00.016Z,17.70
2022-09-09T15:21:32.687Z,17.60
2022-09-09T15:24:02.882Z,17.30
2022-09-09T15:26:31.171Z,17.30
2022-09-09T15:29:01.942Z,17.30
2022-09-09T15:31:37.541Z,17.50
2022-09-09T15:34:08.087Z,17.60
2022-09-09T15:36:38.192Z,17.90
2022-09-09T15:39:08.383Z,17.80
2022-09-09T15:41:36.723Z,17.70
2022-09-09T15:44:06.242Z,17.80
2022-09-09T15:46:38.348Z,17.80
2022-09-09T15:49:08.040Z,17.90
2022-09-09T15:51:42.855Z,17.70
2022-09-09T15:54:13.928Z,17.60
2022-09-09T15:56:41.852Z,17.80
2022-09-09T15:59:12.322Z,18.00
2022-09-09T16:01:41.665Z,18.10
2022-09-09T16:04:10.482Z,18.30
2022-09-09T16:06:38.680Z,18.00
2022-09-09T16:09:08.500Z,17.80
2022-09-09T16:11:38.392Z,17.70
2022-09-09T16:14:07.311Z,17.70
2022-09-09T16:16:37.290Z,17.70
2022-09-09T16:19:07.285Z,17.70
2022-09-09T16:21:38.446Z,17.60
2022-09-09T16:24:08.040Z,17.50
2022-09-09T16:26:37.808Z,17.50
2022-09-09T16:29:06.062Z,17.50
2022-09-09T16:31:34.136Z,17.40
2022-09-09T16:34:06.629Z,17.30
2022-09-09T16:36:40.427Z,17.30
2022-09-09T16:39:12.818Z,17.30
2022-09-09T16:41:42.615Z,17.20
2022-09-09T16:44:14.962Z,17.20
2022-09-09T16:46:45.412Z,17.30
2022-09-09T16:49:24.580Z,17.30
2022-09-09T16:51:56.339Z,17.40
2022-09-09T16:54:30.412Z,17.40
2022-09-09T16:57:03.361Z,17.30
2022-09-09T16:59:34.153Z,17.20
2022-09-09T17:02:08.489Z,17.20
2022-09-09T17:04:38.102Z,17.20
2022-09-09T17:07:09.116Z,17.20
2022-09-09T17:09:38.201Z,17.20
2022-09-09T17:12:19.477Z,17.10
2022-09-09T17:14:48.594Z,17.10
2022-09-09T17:17:31.825Z,17.00
2022-09-09T17:20:03.807Z,17.10
2022-09-09T17:22:33.759Z,16.90
2022-09-09T17:25:01.791Z,16.80
2022-09-09T17:27:36.897Z,16.70
2022-09-09T17:30:07.618Z,16.60
2022-09-09T17:32:36.604Z,16.60
2022-09-09T17:35:11.602Z,16.50
2022-09-09T17:37:45.335Z,16.40
2022-09-09T17:40:16.650Z,16.40
2022-09-09T17:42:46.176Z,16.30
2022-09-09T17:45:18.005Z,16.30
2022-09-09T17:47:51.792Z,16.20
2022-09-09T17:50:36.741Z,16.20
2022-09-09T17:53:07.830Z,16.20
2022-09-09T17:55:36.427Z,16.10
2022-09-09T17:58:09.071Z,16.20
2022-09-09T18:00:40.165Z,16.10
2022-09-09T18:03:09.562Z,15.90
2022-09-09T18:05:39.159Z,15.60
2022-09-09T18:08:06.985Z,15.50
2022-09-09T18:10:35.352Z,15.20
2022-09-09T18:13:03.214Z,15.10
2022-09-09T18:15:48.525Z,14.90
2022-09-09T18:18:17.086Z,14.80
2022-09-09T18:20:46.412Z,14.60
2022-09-09T18:23:14.602Z,14.50
2022-09-09T18:25:42.453Z,14.40
2022-09-09T18:28:11.677Z,14.20
2022-09-09T18:30:41.307Z,14.10
2022-09-09T18:33:09.124Z,14.10
2022-09-09T18:35:38.162Z,14.00
2022-09-09T18:38:20.238Z,13.90
2022-09-09T18:40:51.120Z,13.90
2022-09-09T18:43:19.215Z,13.80
2022-09-09T18:45:47.064Z,13.80
2022-09-09T18:48:14.844Z,13.80
2022-09-09T18:50:42.686Z,13.80
2022-09-09T18:53:16.898Z,13.70
2022-09-09T18:55:44.802Z,13.70
2022-09-09T18:58:13.934Z,13.70
2022-09-09T19:00:47.135Z,13.70
2022-09-09T19:03:17.628Z,13.70
2022-09-09T19:05:47.265Z,13.70
2022-09-09T19:08:16.490Z,13.70
2022-09-09T19:10:44.889Z,13.70
2022-09-09T19:13:18.631Z,13.70
2022-09-09T19:15:46.537Z,13.70
2022-09-09T19:18:14.443Z,13.70
2022-09-09T19:20:42.218Z,13.70
2022-09-09T19:23:10.184Z,13.70
2022-09-09T19:25:39.660Z,13.60
2022-09-09T19:28:07.464Z,13.60
2022-09-09T19:30:37.510Z,13.60
2022-09-09T19:33:05.644Z,13.60
2022-09-09T19:35:33.507Z,13.50
2022-09-09T19:38:01.828Z,13.50
2022-09-09T19:40:30.811Z,13.50
2022-09-09T19:43:02.184Z,13.40
2022-09-09T19:45:35.998Z,13.50
2022-09-09T19:48:07.282Z,13.40
2022-09-09T19:50:36.800Z,13.50
2022-09-09T19:53:04.717Z,13.40
2022-09-09T19:55:32.592Z,13.50
2022-09-09T19:58:01.876Z,13.40
2022-09-09T20:00:29.603Z,13.40
2022-09-09T20:03:18.101Z,13.30
2022-09-09T20:05:50.322Z,13.20
2022-09-09T20:08:18.120Z,13.20
2022-09-09T20:10:52.911Z,13.10
2022-09-09T20:13:22.167Z,13.10
2022-09-09T20:15:58.507Z,13.00
2022-09-09T20:18:29.418Z,13.00
2022-09-09T20:20:59.699Z,12.90
2022-09-09T20:23:28.286Z,12.90
2022-09-09T20:25:56.650Z,12.90
2022-09-09T20:28:25.830Z,12.80
2022-09-09T20:30:53.643Z,12.80
2022-09-09T20:33:21.825Z,12.80
2022-09-09T20:35:50.423Z,12.80
2022-09-09T20:38:24.517Z,12.90
2022-09-09T20:40:54.443Z,12.90
2022-09-09T20:43:23.301Z,13.00
2022-09-09T20:45:57.560Z,13.00
2022-09-09T20:48:28.675Z,13.00
2022-09-09T20:50:56.503Z,13.00
2022-09-09T20:53:25.162Z,12.90
2022-09-09T20:55:56.102Z,12.90
2022-09-09T20:58:24.811Z,12.90
2022-09-09T21:01:00.396Z,12.90
2022-09-09T21:03:31.039Z,12.90
2022-09-09T21:05:59.959Z,13.00
2022-09-09T21:08:28.183Z,13.00
2022-09-09T21:10:56.029Z,13.10
2022-09-09T21:13:24.298Z,13.20
2022-09-09T21:15:54.004Z,13.20
2022-09-09T21:18:23.213Z,13.30
2022-09-09T21:20:53.023Z,13.20
2022-09-09T21:23:21.276Z,13.20
2022-09-09T21:25:49.330Z,13.10
2022-09-09T21:28:18.556Z,13.10
2022-09-09T21:30:50.379Z,13.00
2022-09-09T21:33:22.318Z,13.10
2022-09-09T21:35:51.140Z,13.20
2022-09-09T21:38:21.493Z,13.30
2022-09-09T21:40:50.079Z,13.40
2022-09-09T21:43:19.242Z,13.40
2022-09-09T21:45:47.645Z,13.40
2022-09-09T21:48:16.922Z,13.40
2022-09-09T21:50:47.550Z,13.40
2022-09-09T21:53:20.205Z,13.40
2022-09-09T21:55:49.638Z,13.50
2022-09-09T21:58:18.673Z,13.60
2022-09-09T22:00:47.839Z,13.60
2022-09-09T22:03:17.485Z,13.60
2022-09-09T22:05:49.713Z,13.60
2022-09-09T22:08:21.141Z,13.70
2022-09-09T22:10:49.281Z,13.70
2022-09-09T22:13:19.963Z,13.70
2022-09-09T22:15:49.300Z,13.70
2022-09-09T22:18:18.714Z,13.70
2022-09-09T22:21:01.045Z,13.70
2022-09-09T22:23:30.925Z,13.80
2022-09-09T22:26:04.188Z,13.70
2022-09-09T22:28:32.469Z,13.80
2022-09-09T22:31:00.992Z,13.70
2022-09-09T22:33:38.660Z,13.70
2022-09-09T22:36:08.544Z,13.70
2022-09-09T22:38:36.518Z,13.70
2022-09-09T22:41:06.271Z,13.70
2022-09-09T22:43:34.293Z,13.70
2022-09-09T22:46:02.793Z,13.70
2022-09-09T22:48:33.645Z,13.70
2022-09-09T22:51:04.623Z,13.70
2022-09-09T22:53:35.600Z,13.70
2022-09-09T22:56:07.076Z,13.70
2022-09-09T22:58:37.633Z,13.70
2022-09-09T23:01:11.290Z,13.70
2022-09-09T23:03:41.241Z,13.60
2022-09-09T23:06:12.050Z,13.60
2022-09-09T23:08:41.513Z,13.50
2022-09-09T23:11:13.638Z,13.40
2022-09-09T23:13:46.467Z,13.40
2022-09-09T23:16:16.637Z,13.40
2022-09-09T23:18:47.282Z,13.50
2022-09-09T23:21:20.160Z,13.50
2022-09-09T23:23:52.919Z,13.60
2022-09-09T23:26:23.099Z,13.60
2022-09-09T23:28:52.788Z,13.70
2022-09-09T23:31:27.865Z,13.70
2022-09-09T23:33:58.566Z,13.70
2022-09-09T23:39:18.993Z,13.70
2022-09-09T23:41:47.507Z,13.70
2022-09-09T23:44:15.375Z,13.70
2022-09-09T23:46:43.440Z,13.80
2022-09-09T23:49:11.954Z,13.80
2022-09-09T23:51:41.333Z,13.80
2022-09-09T23:54:11.944Z,13.70
2022-09-09T23:56:43.337Z,13.80
2022-09-09T23:59:12.490Z,13.70
